createdAt,value
2017-08-24T00:00:36.613Z,76.30
2017-08-24T00:03:04.188Z,76.60
2017-08-24T00:05:31.783Z,77.50
2017-08-24T00:07:59.396Z,78.50
2017-08-24T00:10:26.970Z,79.30
2017-08-24T00:12:54.546Z,79.70
2017-08-24T00:15:22.135Z,80.20
2017-08-24T00:17:50.468Z,81.20
2017-08-24T00:20:18.040Z,81.20
2017-08-24T00:22:46.030Z,81.10
2017-08-24T00:25:14.365Z,82.40
2017-08-24T00:27:41.949Z,81.60
2017-08-24T00:30:09.554Z,81.40
2017-08-24T00:32:37.122Z,81.60
2017-08-24T00:35:04.685Z,81.70
2017-08-24T00:37:32.272Z,81.70
2017-08-24T00:39:59.853Z,81.80
2017-08-24T00:42:27.421Z,82.20
2017-08-24T00:44:55.037Z,82.10
2017-08-24T00:47:22.619Z,82.20
2017-08-24T00:49:50.193Z,82.30
2017-08-24T00:52:17.788Z,82.30
2017-08-24T00:54:45.353Z,82.30
2017-08-24T00:57:12.921Z,82.10
2017-08-24T00:59:40.530Z,82.00
2017-08-24T01:02:08.113Z,82.20
2017-08-24T01:04:35.675Z,82.30
2017-08-24T01:07:03.304Z,82.20
2017-08-24T01:09:30.865Z,82.30
2017-08-24T01:11:58.449Z,82.20
2017-08-24T01:14:26.028Z,82.30
2017-08-24T01:16:53.601Z,82.30
2017-08-24T01:19:21.148Z,82.20
2017-08-24T01:21:48.753Z,82.20
2017-08-24T01:24:16.314Z,82.00
2017-08-24T01:26:43.882Z,82.00
2017-08-24T01:29:11.500Z,82.20
2017-08-24T01:31:39.088Z,82.30
2017-08-24T01:34:06.637Z,81.80
2017-08-24T01:36:34.252Z,81.80
2017-08-24T01:39:01.831Z,82.00
2017-08-24T01:41:29.390Z,81.80
2017-08-24T01:43:56.999Z,81.60
2017-08-24T01:46:24.566Z,81.30
2017-08-24T01:48:52.116Z,81.60
2017-08-24T01:51:19.733Z,81.60
2017-08-24T01:53:47.312Z,81.50
2017-08-24T01:56:14.886Z,81.30
2017-08-24T01:58:42.506Z,81.40
2017-08-24T02:01:10.078Z,81.10
2017-08-24T02:03:37.651Z,81.20
2017-08-24T02:06:05.370Z,81.30
2017-08-24T02:08:32.903Z,81.40
2017-08-24T02:11:00.454Z,81.40
2017-08-24T02:13:28.029Z,81.50
2017-08-24T02:15:55.564Z,81.30
2017-08-24T02:18:23.097Z,81.00
2017-08-24T02:20:50.672Z,81.30
2017-08-24T02:23:18.200Z,81.20
2017-08-24T02:25:45.732Z,80.90
2017-08-24T02:28:13.306Z,81.40
2017-08-24T02:30:40.833Z,81.20
2017-08-24T02:33:08.386Z,80.90
2017-08-24T02:35:35.946Z,80.90
2017-08-24T02:38:03.505Z,80.90
2017-08-24T02:40:31.063Z,81.00
2017-08-24T02:42:58.643Z,81.10
2017-08-24T02:45:26.197Z,81.00
2017-08-24T02:47:53.728Z,80.90
2017-08-24T02:50:21.304Z,80.80
2017-08-24T02:52:48.850Z,81.00
2017-08-24T02:55:16.383Z,80.90
2017-08-24T02:57:43.964Z,81.00
2017-08-24T03:00:11.508Z,81.00
2017-08-24T03:02:39.055Z,80.90
2017-08-24T03:05:06.637Z,80.90
2017-08-24T03:07:34.191Z,80.70
2017-08-24T03:10:01.727Z,81.00
2017-08-24T03:12:29.313Z,81.30
2017-08-24T03:14:56.848Z,81.50
2017-08-24T03:17:24.385Z,81.40
2017-08-24T03:19:51.964Z,81.60
2017-08-24T03:22:19.506Z,81.50
2017-08-24T03:24:47.044Z,81.50
2017-08-24T03:27:14.631Z,81.40
2017-08-24T03:29:42.169Z,81.20
2017-08-24T03:32:09.703Z,81.20
2017-08-24T03:34:37.279Z,81.80
2017-08-24T03:37:04.818Z,80.30
2017-08-24T03:39:32.344Z,79.60
2017-08-24T03:41:59.910Z,79.40
2017-08-24T03:44:27.440Z,79.00
2017-08-24T03:46:54.989Z,79.00
2017-08-24T03:49:22.548Z,79.70
2017-08-24T03:51:50.088Z,78.70
2017-08-24T03:54:17.638Z,78.30
2017-08-24T03:56:45.213Z,78.60
2017-08-24T03:59:12.750Z,78.50
2017-08-24T04:01:40.282Z,78.90
2017-08-24T04:04:07.867Z,79.10
2017-08-24T04:06:35.428Z,79.10
2017-08-24T04:09:02.965Z,79.10
2017-08-24T04:11:31.297Z,79.50
2017-08-24T04:13:58.855Z,79.50
2017-08-24T04:16:26.409Z,79.60
2017-08-24T04:18:53.986Z,79.40
2017-08-24T04:21:21.517Z,79.50
2017-08-24T04:23:49.052Z,79.20
2017-08-24T04:26:16.616Z,79.50
2017-08-24T04:28:44.155Z,79.70
2017-08-24T04:31:11.690Z,79.50
2017-08-24T04:33:39.254Z,79.30
2017-08-24T04:36:06.868Z,79.50
2017-08-24T04:38:34.408Z,79.40
2017-08-24T04:41:02.023Z,79.30
2017-08-24T04:43:29.548Z,79.90
2017-08-24T04:45:57.089Z,79.50
2017-08-24T04:48:24.645Z,79.50
2017-08-24T04:50:52.191Z,79.50
2017-08-24T04:53:19.746Z,79.80
2017-08-24T04:55:47.315Z,79.30
2017-08-24T04:58:14.862Z,79.50
2017-08-24T05:00:42.392Z,79.60
2017-08-24T05:03:09.980Z,79.70
2017-08-24T05:05:37.526Z,79.70
2017-08-24T05:08:05.065Z,79.70
2017-08-24T05:10:32.644Z,79.70
2017-08-24T05:13:00.191Z,79.50
2017-08-24T05:15:27.743Z,79.40
2017-08-24T05:17:55.313Z,79.30
2017-08-24T05:20:22.848Z,79.10
2017-08-24T05:22:50.377Z,79.00
2017-08-24T05:25:17.945Z,79.00
2017-08-24T05:27:45.544Z,79.10
2017-08-24T05:30:13.082Z,79.30
2017-08-24T05:32:40.996Z,79.40
2017-08-24T05:35:08.525Z,79.00
2017-08-24T05:37:36.071Z,79.40
2017-08-24T05:40:03.633Z,79.30
2017-08-24T05:42:31.175Z,79.30
2017-08-24T05:44:58.709Z,79.10
2017-08-24T05:47:26.284Z,79.40
2017-08-24T05:49:53.832Z,79.30
2017-08-24T05:52:21.364Z,79.10
2017-08-24T05:54:48.942Z,78.90
2017-08-24T05:57:16.489Z,79.20
2017-08-24T05:59:44.039Z,79.10
2017-08-24T06:02:11.610Z,78.90
2017-08-24T06:04:39.149Z,78.80
2017-08-24T06:07:06.676Z,79.10
2017-08-24T06:09:34.228Z,79.10
2017-08-24T06:12:01.770Z,78.80
2017-08-24T06:14:29.296Z,78.80
2017-08-24T06:16:56.902Z,78.80
2017-08-24T06:19:24.443Z,78.20
2017-08-24T06:21:51.992Z,78.40
2017-08-24T06:24:19.578Z,78.10
2017-08-24T06:26:47.123Z,77.80
2017-08-24T06:29:14.661Z,77.90
2017-08-24T06:31:42.243Z,78.00
2017-08-24T06:34:09.797Z,77.70
2017-08-24T06:36:37.358Z,77.90
2017-08-24T06:39:04.946Z,77.60
2017-08-24T06:41:33.254Z,77.40
2017-08-24T06:44:00.793Z,77.40
2017-08-24T06:46:28.357Z,77.30
2017-08-24T06:48:55.914Z,77.20
2017-08-24T06:51:23.463Z,77.90
2017-08-24T06:53:51.023Z,78.40
2017-08-24T06:56:18.588Z,78.40
2017-08-24T06:58:46.130Z,78.40
2017-08-24T07:01:13.698Z,78.10
2017-08-24T07:03:41.227Z,78.30
2017-08-24T07:06:08.769Z,78.50
2017-08-24T07:08:36.349Z,78.60
2017-08-24T07:11:03.899Z,78.50
2017-08-24T07:13:31.438Z,78.20
2017-08-24T07:15:59.784Z,78.30
2017-08-24T07:18:27.332Z,78.30
2017-08-24T07:20:54.882Z,77.70
2017-08-24T07:23:22.456Z,77.70
2017-08-24T07:25:50.010Z,77.40
2017-08-24T07:28:17.572Z,77.40
2017-08-24T07:30:45.142Z,77.70
2017-08-24T07:33:12.688Z,77.30
2017-08-24T07:35:40.220Z,76.70
2017-08-24T07:38:07.799Z,76.60
2017-08-24T07:40:35.338Z,77.40
2017-08-24T07:43:02.895Z,77.10
2017-08-24T07:45:30.479Z,77.10
2017-08-24T07:47:58.034Z,76.60
2017-08-24T07:50:25.569Z,76.20
2017-08-24T07:52:53.147Z,75.80
2017-08-24T07:55:21.482Z,76.10
2017-08-24T07:57:49.019Z,76.00
2017-08-24T08:00:16.617Z,74.90
2017-08-24T08:02:44.163Z,74.50
2017-08-24T08:05:11.715Z,74.50
2017-08-24T08:07:39.281Z,75.50
2017-08-24T08:10:06.813Z,75.80
2017-08-24T08:12:34.348Z,76.30
2017-08-24T08:15:01.933Z,76.50
2017-08-24T08:17:29.501Z,76.00
2017-08-24T08:19:57.027Z,76.00
2017-08-24T08:22:24.591Z,75.70
2017-08-24T08:24:52.129Z,75.60
2017-08-24T08:27:19.685Z,75.90
2017-08-24T08:29:47.263Z,74.90
2017-08-24T08:32:14.816Z,75.00
2017-08-24T08:34:42.353Z,74.80
2017-08-24T08:37:09.938Z,74.70
2017-08-24T08:39:37.476Z,74.10
2017-08-24T08:42:05.025Z,73.40
2017-08-24T08:44:32.673Z,73.10
2017-08-24T08:47:00.172Z,73.50
2017-08-24T08:49:27.724Z,71.70
2017-08-24T08:51:55.308Z,71.60
2017-08-24T08:54:22.845Z,70.30
2017-08-24T08:56:50.390Z,70.30
2017-08-24T08:59:17.971Z,70.00
2017-08-24T09:01:45.524Z,69.20
2017-08-24T09:04:13.085Z,68.60
2017-08-24T09:06:40.649Z,68.90
2017-08-24T09:09:08.186Z,68.10
2017-08-24T09:11:35.726Z,68.50
2017-08-24T09:14:03.300Z,68.40
2017-08-24T09:16:30.845Z,68.70
2017-08-24T09:18:58.397Z,69.60
2017-08-24T09:21:25.967Z,70.20
2017-08-24T09:23:53.514Z,68.40
2017-08-24T09:26:21.055Z,68.40
2017-08-24T09:28:48.635Z,68.60
2017-08-24T09:31:16.168Z,68.70
2017-08-24T09:33:43.707Z,69.20
2017-08-24T09:36:11.280Z,69.40
2017-08-24T09:38:38.843Z,67.70
2017-08-24T09:41:06.377Z,68.60
2017-08-24T09:43:33.959Z,68.50
2017-08-24T09:46:01.493Z,69.30
2017-08-24T09:48:29.059Z,69.00
2017-08-24T09:50:56.646Z,69.00
2017-08-24T09:53:24.176Z,68.90
2017-08-24T09:55:51.704Z,67.60
2017-08-24T09:58:19.272Z,66.90
2017-08-24T10:00:46.836Z,67.10
2017-08-24T10:03:14.392Z,66.20
2017-08-24T10:05:41.969Z,66.80
2017-08-24T10:08:09.552Z,67.20
2017-08-24T10:10:37.126Z,66.70
2017-08-24T10:13:04.720Z,65.80
2017-08-24T10:15:32.262Z,65.90
2017-08-24T10:17:59.803Z,65.90
2017-08-24T10:20:27.386Z,65.60
2017-08-24T10:22:54.924Z,65.20
2017-08-24T10:25:22.465Z,65.10
2017-08-24T10:27:50.030Z,64.60
2017-08-24T10:30:17.658Z,64.50
2017-08-24T10:32:45.146Z,63.80
2017-08-24T10:35:12.733Z,64.30
2017-08-24T10:37:40.290Z,65.20
2017-08-24T10:40:07.829Z,64.70
2017-08-24T10:42:35.411Z,65.40
2017-08-24T10:45:03.741Z,65.80
2017-08-24T10:47:31.285Z,65.20
2017-08-24T10:49:58.872Z,65.00
2017-08-24T10:52:26.433Z,65.20
2017-08-24T10:54:53.964Z,65.50
2017-08-24T10:57:21.533Z,65.70
2017-08-24T10:59:49.070Z,67.20
2017-08-24T11:02:16.613Z,65.90
2017-08-24T11:04:44.203Z,65.00
2017-08-24T11:07:11.791Z,65.30
2017-08-24T11:09:41.042Z,64.80
2017-08-24T11:12:08.613Z,65.00
2017-08-24T11:14:36.154Z,66.10
2017-08-24T11:17:03.739Z,64.80
2017-08-24T11:19:32.088Z,63.60
2017-08-24T11:21:59.632Z,63.50
2017-08-24T11:24:27.190Z,63.40
2017-08-24T11:26:54.750Z,63.10
2017-08-24T11:29:22.304Z,63.10
2017-08-24T11:31:49.866Z,63.20
2017-08-24T11:34:17.491Z,62.40
2017-08-24T11:36:45.029Z,62.20
2017-08-24T11:39:12.605Z,61.90
2017-08-24T11:41:40.173Z,61.20
2017-08-24T11:44:07.725Z,62.80
2017-08-24T11:46:35.360Z,61.90
2017-08-24T11:49:02.978Z,61.00
2017-08-24T11:51:30.605Z,60.50
2017-08-24T11:53:58.215Z,60.40
2017-08-24T11:56:25.818Z,61.90
2017-08-24T11:58:53.354Z,60.10
2017-08-24T12:01:20.910Z,61.10
2017-08-24T12:03:48.484Z,61.10
2017-08-24T12:06:16.025Z,60.70
2017-08-24T12:08:43.560Z,61.20
2017-08-24T12:11:11.157Z,60.40
2017-08-24T12:13:38.752Z,58.70
2017-08-24T12:16:06.307Z,58.60
2017-08-24T12:18:33.954Z,58.60
2017-08-24T12:21:01.518Z,57.60
2017-08-24T12:23:29.110Z,57.40
2017-08-24T12:25:56.715Z,58.30
2017-08-24T12:28:24.313Z,58.40
2017-08-24T12:30:51.869Z,57.50
2017-08-24T12:33:19.436Z,57.60
2017-08-24T12:35:46.973Z,56.70
2017-08-24T12:38:14.517Z,58.60
2017-08-24T12:40:42.132Z,57.30
2017-08-24T12:43:09.692Z,57.40
2017-08-24T12:45:37.246Z,59.20
2017-08-24T12:48:04.812Z,57.10
2017-08-24T12:50:32.356Z,55.90
2017-08-24T12:52:59.881Z,56.20
2017-08-24T12:55:27.444Z,56.80
2017-08-24T12:57:55.072Z,56.70
2017-08-24T13:00:22.635Z,56.70
2017-08-24T13:02:50.197Z,57.30
2017-08-24T13:05:17.731Z,57.00
2017-08-24T13:07:45.283Z,57.70
2017-08-24T13:10:12.873Z,57.60
2017-08-24T13:12:40.403Z,57.00
2017-08-24T13:15:07.961Z,56.50
2017-08-24T13:17:35.536Z,56.80
2017-08-24T13:20:03.074Z,56.50
2017-08-24T13:22:30.629Z,56.30
2017-08-24T13:24:58.211Z,57.20
2017-08-24T13:27:25.744Z,57.60
2017-08-24T13:29:53.280Z,57.90
2017-08-24T13:32:20.868Z,57.70
2017-08-24T13:34:49.170Z,58.40
2017-08-24T13:37:16.700Z,58.40
2017-08-24T13:39:44.284Z,57.60
2017-08-24T13:42:11.834Z,59.20
2017-08-24T13:44:39.366Z,58.30
2017-08-24T13:47:06.928Z,59.20
2017-08-24T13:49:34.463Z,58.70
2017-08-24T13:52:01.997Z,58.40
2017-08-24T13:54:29.581Z,59.70
2017-08-24T13:56:57.136Z,58.20
2017-08-24T13:59:24.676Z,58.00
2017-08-24T14:01:53.004Z,58.40
2017-08-24T14:04:20.558Z,58.20
2017-08-24T14:06:48.131Z,57.50
2017-08-24T14:09:15.719Z,57.70
2017-08-24T14:11:43.255Z,57.40
2017-08-24T14:14:10.798Z,57.70
2017-08-24T14:16:38.388Z,57.50
2017-08-24T14:19:05.949Z,56.20
2017-08-24T14:21:33.486Z,57.00
2017-08-24T14:24:01.079Z,57.60
2017-08-24T14:26:28.642Z,56.40
2017-08-24T14:28:56.177Z,56.90
2017-08-24T14:31:23.752Z,56.80
2017-08-24T14:33:51.298Z,56.20
2017-08-24T14:36:18.851Z,56.30
2017-08-24T14:38:47.277Z,55.20
2017-08-24T14:41:14.860Z,55.40
2017-08-24T14:43:42.391Z,54.80
2017-08-24T14:46:09.954Z,55.40
2017-08-24T14:48:37.484Z,55.50
2017-08-24T14:51:05.035Z,55.60
2017-08-24T14:53:32.616Z,56.80
2017-08-24T14:56:00.167Z,56.00
2017-08-24T14:58:27.710Z,54.90
2017-08-24T15:00:56.055Z,55.40
2017-08-24T15:03:23.592Z,55.40
2017-08-24T15:05:51.126Z,55.30
2017-08-24T15:08:18.711Z,54.10
2017-08-24T15:10:46.354Z,54.70
2017-08-24T15:13:13.905Z,54.10
2017-08-24T15:15:41.491Z,54.10
2017-08-24T15:18:09.026Z,54.10
2017-08-24T15:20:36.577Z,54.20
2017-08-24T15:23:04.143Z,55.40
2017-08-24T15:25:31.689Z,54.90
2017-08-24T15:27:59.234Z,54.80
2017-08-24T15:30:26.808Z,55.70
2017-08-24T15:32:54.348Z,56.70
2017-08-24T15:35:21.896Z,55.30
2017-08-24T15:37:49.471Z,55.70
2017-08-24T15:40:17.005Z,55.60
2017-08-24T15:42:44.545Z,55.50
2017-08-24T15:45:12.116Z,56.40
2017-08-24T15:47:39.655Z,55.30
2017-08-24T15:50:07.207Z,56.70
2017-08-24T15:52:34.787Z,56.20
2017-08-24T15:55:02.340Z,55.40
2017-08-24T15:57:29.901Z,56.30
2017-08-24T15:59:57.475Z,56.00
2017-08-24T16:02:25.007Z,54.50
2017-08-24T16:04:53.332Z,55.40
2017-08-24T16:07:20.911Z,55.40
2017-08-24T16:09:48.442Z,55.60
2017-08-24T16:12:15.996Z,55.20
2017-08-24T16:14:43.552Z,55.70
2017-08-24T16:17:11.084Z,56.30
2017-08-24T16:19:38.608Z,55.60
2017-08-24T16:22:06.173Z,56.60
2017-08-24T16:24:33.707Z,56.60
2017-08-24T16:27:01.249Z,56.00
2017-08-24T16:29:28.809Z,57.10
2017-08-24T16:31:57.125Z,56.30
2017-08-24T16:34:24.664Z,56.30
2017-08-24T16:36:52.251Z,57.60
2017-08-24T16:39:19.802Z,57.20
2017-08-24T16:41:47.354Z,57.20
2017-08-24T16:44:14.934Z,57.40
2017-08-24T16:46:42.468Z,58.00
2017-08-24T16:49:10.016Z,57.90
2017-08-24T16:51:37.594Z,57.60
2017-08-24T16:54:05.142Z,57.10
2017-08-24T16:56:33.461Z,57.00
2017-08-24T16:59:01.043Z,57.00
2017-08-24T17:01:28.573Z,56.90
2017-08-24T17:03:56.134Z,56.60
2017-08-24T17:06:23.729Z,56.50
2017-08-24T17:08:51.288Z,56.80
2017-08-24T17:11:18.841Z,57.20
2017-08-24T17:13:46.429Z,56.90
2017-08-24T17:16:13.985Z,57.00
2017-08-24T17:18:41.539Z,56.90
2017-08-24T17:21:09.112Z,57.50
2017-08-24T17:23:36.657Z,56.60
2017-08-24T17:26:04.180Z,57.30
2017-08-24T17:28:31.763Z,56.50
2017-08-24T17:30:59.293Z,57.10
2017-08-24T17:33:27.603Z,57.60
2017-08-24T17:35:55.187Z,57.60
2017-08-24T17:38:22.735Z,58.10
2017-08-24T17:40:50.289Z,58.50
2017-08-24T17:43:17.850Z,58.40
2017-08-24T17:45:45.396Z,58.80
2017-08-24T17:48:12.971Z,58.50
2017-08-24T17:50:40.536Z,58.70
2017-08-24T17:53:08.079Z,58.60
2017-08-24T17:55:35.643Z,58.90
2017-08-24T17:58:03.211Z,60.00
2017-08-24T18:00:30.744Z,59.60
2017-08-24T18:02:58.331Z,59.50
2017-08-24T18:05:25.890Z,59.60
2017-08-24T18:07:53.426Z,59.90
2017-08-24T18:10:20.948Z,60.00
2017-08-24T18:12:48.513Z,60.10
2017-08-24T18:15:16.060Z,60.10
2017-08-24T18:17:43.594Z,60.30
2017-08-24T18:20:11.178Z,60.40
2017-08-24T18:22:45.105Z,60.70
2017-08-24T18:25:13.141Z,60.60
2017-08-24T18:27:40.674Z,61.00
2017-08-24T18:30:08.225Z,60.70
2017-08-24T18:32:35.802Z,61.10
2017-08-24T18:35:03.355Z,61.10
2017-08-24T18:37:30.886Z,61.60
2017-08-24T18:39:58.457Z,61.80
2017-08-24T18:42:25.994Z,62.50
2017-08-24T18:44:53.532Z,62.20
2017-08-24T18:47:21.115Z,63.80
2017-08-24T18:49:48.676Z,64.30
2017-08-24T18:52:16.216Z,64.10
2017-08-24T18:54:43.800Z,64.10
2017-08-24T18:57:11.332Z,64.60
2017-08-24T18:59:49.526Z,64.50
2017-08-24T19:02:17.075Z,64.50
2017-08-24T19:04:44.622Z,64.90
2017-08-24T19:07:12.185Z,65.30
2017-08-24T19:09:39.759Z,65.60
2017-08-24T19:12:07.285Z,65.20
2017-08-24T19:14:34.862Z,65.50
2017-08-24T19:17:02.405Z,65.30
2017-08-24T19:29:26.844Z,64.70
2017-08-24T19:31:54.393Z,65.80
2017-08-24T19:34:21.963Z,66.00
2017-08-24T19:36:49.584Z,66.30
2017-08-24T19:39:17.120Z,66.80
2017-08-24T19:41:44.784Z,66.70
2017-08-24T19:44:12.373Z,67.40
2017-08-24T19:46:39.908Z,67.10
2017-08-24T19:49:07.512Z,67.50
2017-08-24T19:51:35.065Z,67.30
2017-08-24T19:54:02.619Z,67.30
2017-08-24T19:56:30.205Z,67.20
2017-08-24T19:58:57.921Z,67.30
2017-08-24T20:01:25.462Z,67.90
2017-08-24T20:03:52.998Z,67.70
2017-08-24T20:06:20.569Z,67.40
2017-08-24T20:08:48.876Z,67.50
2017-08-24T20:11:16.456Z,67.50
2017-08-24T20:13:44.022Z,67.90
2017-08-24T20:16:11.574Z,68.40
2017-08-24T20:18:39.265Z,68.90
2017-08-24T20:21:06.857Z,68.40
2017-08-24T20:23:34.411Z,68.10
2017-08-24T20:26:01.944Z,67.70
2017-08-24T20:28:29.583Z,67.70
2017-08-24T20:30:57.148Z,68.10
2017-08-24T20:33:24.709Z,68.00
2017-08-24T20:35:52.297Z,67.70
2017-08-24T20:38:19.845Z,67.90
2017-08-24T20:40:47.400Z,67.90
2017-08-24T20:43:14.975Z,67.90
2017-08-24T20:45:42.523Z,67.80
2017-08-24T20:48:10.077Z,67.70
2017-08-24T20:50:37.643Z,68.20
2017-08-24T20:53:05.188Z,68.20
2017-08-24T20:55:32.731Z,69.20
2017-08-24T20:58:00.313Z,68.90
2017-08-24T21:00:27.864Z,68.70
2017-08-24T21:02:55.396Z,69.20
2017-08-24T21:05:22.960Z,69.10
2017-08-24T21:07:50.513Z,70.40
2017-08-24T21:10:18.054Z,69.80
2017-08-24T21:12:45.627Z,70.00
2017-08-24T21:15:13.178Z,69.90
2017-08-24T21:17:40.728Z,70.00
2017-08-24T21:20:08.315Z,70.50
2017-08-24T21:22:35.841Z,71.50
2017-08-24T21:25:03.386Z,70.70
2017-08-24T21:27:30.942Z,70.40
2017-08-24T21:29:58.491Z,70.80
2017-08-24T21:32:26.021Z,71.20
2017-08-24T21:34:53.590Z,70.80
2017-08-24T21:37:21.136Z,70.70
2017-08-24T21:39:48.945Z,71.30
2017-08-24T21:42:17.284Z,71.40
2017-08-24T21:44:44.820Z,71.40
2017-08-24T21:47:12.343Z,71.40
2017-08-24T21:49:39.900Z,71.60
2017-08-24T21:52:07.425Z,72.10
2017-08-24T21:54:34.964Z,72.20
2017-08-24T21:57:02.548Z,72.10
2017-08-24T21:59:30.095Z,72.40
2017-08-24T22:01:57.650Z,72.40
2017-08-24T22:04:25.224Z,72.20
2017-08-24T22:06:52.753Z,72.50
2017-08-24T22:09:20.279Z,72.70
2017-08-24T22:11:47.851Z,72.60
2017-08-24T22:14:15.405Z,72.60
2017-08-24T22:16:42.932Z,72.50
2017-08-24T22:19:10.518Z,72.50
2017-08-24T22:21:38.049Z,72.50
2017-08-24T22:24:05.605Z,73.10
2017-08-24T22:26:33.164Z,71.90
2017-08-24T22:29:00.713Z,72.20
2017-08-24T22:31:29.027Z,72.60
2017-08-24T22:33:56.599Z,72.50
2017-08-24T22:36:24.134Z,72.40
2017-08-24T22:38:51.670Z,72.40
2017-08-24T22:41:19.244Z,72.60
2017-08-24T22:43:46.804Z,73.30
2017-08-24T22:46:14.341Z,72.80
2017-08-24T22:48:41.907Z,72.70
2017-08-24T22:51:09.428Z,73.20
2017-08-24T22:53:42.799Z,72.80
2017-08-24T22:56:15.902Z,73.30
2017-08-24T22:58:49.084Z,73.20
2017-08-24T23:01:22.234Z,73.70
2017-08-24T23:03:55.472Z,73.30
2017-08-24T23:06:22.998Z,73.80
2017-08-24T23:08:50.529Z,74.10
2017-08-24T23:11:18.108Z,74.10
2017-08-24T23:13:45.637Z,74.60
2017-08-24T23:16:13.190Z,74.50
2017-08-24T23:18:40.758Z,74.10
2017-08-24T23:21:08.288Z,74.20
2017-08-24T23:23:35.832Z,74.70
2017-08-24T23:26:03.415Z,75.30
2017-08-24T23:28:30.953Z,75.40
2017-08-24T23:30:58.490Z,75.40
2017-08-24T23:33:26.071Z,75.60
2017-08-24T23:35:53.622Z,75.30
2017-08-24T23:38:21.155Z,75.50
2017-08-24T23:40:48.723Z,75.60
2017-08-24T23:43:16.251Z,75.90
2017-08-24T23:45:43.797Z,75.80
2017-08-24T23:48:11.377Z,75.80
2017-08-24T23:50:38.912Z,75.70
2017-08-24T23:53:06.456Z,75.80
2017-08-24T23:55:34.013Z,75.90
2017-08-24T23:58:01.545Z,76.00
